sensor_id;sensor_type;location;lat;lon;timestamp;P1;durP1;ratioP1;P2;durP2;ratioP2
34278;SDS011;20538;51.528;9.942;2023-01-31T00:01:13;20.50;;;3.00;;
34278;SDS011;20538;51.528;9.942;2023-01-31T00:03:40;18.93;;;4.47;;
34278;SDS011;20538;51.528;9.942;2023-01-31T00:06:16;20.98;;;3.47;;
34278;SDS011;20538;51.528;9.942;2023-01-31T00:08:47;24.02;;;3.40;;
34278;SDS011;20538;51.528;9.942;2023-01-31T00:11:14;29.88;;;5.22;;
34278;SDS011;20538;51.528;9.942;2023-01-31T00:13:40;29.63;;;4.65;;
34278;SDS011;20538;51.528;9.942;2023-01-31T00:16:07;22.63;;;3.13;;
34278;SDS011;20538;51.528;9.942;2023-01-31T00:18:33;23.25;;;4.63;;
34278;SDS011;20538;51.528;9.942;2023-01-31T00:21:04;19.92;;;3.05;;
34278;SDS011;20538;51.528;9.942;2023-01-31T00:23:34;13.70;;;3.72;;
34278;SDS011;20538;51.528;9.942;2023-01-31T00:28:48;28.65;;;3.97;;
34278;SDS011;20538;51.528;9.942;2023-01-31T00:31:15;27.90;;;3.83;;
34278;SDS011;20538;51.528;9.942;2023-01-31T00:33:42;21.80;;;3.97;;
34278;SDS011;20538;51.528;9.942;2023-01-31T00:36:10;20.40;;;3.80;;
34278;SDS011;20538;51.528;9.942;2023-01-31T00:38:38;22.17;;;3.20;;
34278;SDS011;20538;51.528;9.942;2023-01-31T00:41:03;26.63;;;4.22;;
34278;SDS011;20538;51.528;9.942;2023-01-31T00:43:30;18.65;;;3.40;;
34278;SDS011;20538;51.528;9.942;2023-01-31T00:45:56;24.98;;;4.25;;
34278;SDS011;20538;51.528;9.942;2023-01-31T00:48:22;13.80;;;3.13;;
34278;SDS011;20538;51.528;9.942;2023-01-31T00:50:48;17.88;;;3.78;;
34278;SDS011;20538;51.528;9.942;2023-01-31T00:53:13;15.55;;;3.92;;
34278;SDS011;20538;51.528;9.942;2023-01-31T00:55:39;29.48;;;3.15;;
34278;SDS011;20538;51.528;9.942;2023-01-31T00:58:05;17.38;;;2.35;;
34278;SDS011;20538;51.528;9.942;2023-01-31T01:00:30;20.42;;;3.33;;
34278;SDS011;20538;51.528;9.942;2023-01-31T01:02:56;23.30;;;4.07;;
34278;SDS011;20538;51.528;9.942;2023-01-31T01:05:22;22.08;;;2.35;;
34278;SDS011;20538;51.528;9.942;2023-01-31T01:07:48;19.00;;;2.83;;
34278;SDS011;20538;51.528;9.942;2023-01-31T01:10:13;17.15;;;2.50;;
34278;SDS011;20538;51.528;9.942;2023-01-31T01:12:39;20.58;;;3.08;;
34278;SDS011;20538;51.528;9.942;2023-01-31T01:15:05;20.00;;;2.80;;
34278;SDS011;20538;51.528;9.942;2023-01-31T01:17:30;15.88;;;2.75;;
34278;SDS011;20538;51.528;9.942;2023-01-31T01:19:56;21.70;;;3.35;;
34278;SDS011;20538;51.528;9.942;2023-01-31T01:22:22;21.85;;;3.08;;
34278;SDS011;20538;51.528;9.942;2023-01-31T01:24:47;23.58;;;3.40;;
34278;SDS011;20538;51.528;9.942;2023-01-31T01:27:13;17.00;;;3.65;;
34278;SDS011;20538;51.528;9.942;2023-01-31T01:29:39;18.17;;;3.20;;
34278;SDS011;20538;51.528;9.942;2023-01-31T01:32:05;22.17;;;3.78;;
34278;SDS011;20538;51.528;9.942;2023-01-31T01:34:32;23.48;;;3.83;;
34278;SDS011;20538;51.528;9.942;2023-01-31T01:36:59;25.52;;;3.20;;
34278;SDS011;20538;51.528;9.942;2023-01-31T01:39:25;19.38;;;3.35;;
34278;SDS011;20538;51.528;9.942;2023-01-31T01:41:54;20.25;;;2.97;;
34278;SDS011;20538;51.528;9.942;2023-01-31T01:50:09;19.77;;;3.35;;
34278;SDS011;20538;51.528;9.942;2023-01-31T01:53:08;30.65;;;4.32;;
34278;SDS011;20538;51.528;9.942;2023-01-31T01:56:00;16.48;;;2.30;;
34278;SDS011;20538;51.528;9.942;2023-01-31T01:58:47;14.52;;;2.60;;
34278;SDS011;20538;51.528;9.942;2023-01-31T02:01:15;23.45;;;2.70;;
34278;SDS011;20538;51.528;9.942;2023-01-31T02:03:41;21.83;;;2.80;;
34278;SDS011;20538;51.528;9.942;2023-01-31T02:06:08;19.40;;;2.80;;
34278;SDS011;20538;51.528;9.942;2023-01-31T02:08:35;16.05;;;3.53;;
34278;SDS011;20538;51.528;9.942;2023-01-31T02:11:36;30.88;;;4.35;;
34278;SDS011;20538;51.528;9.942;2023-01-31T02:14:02;20.13;;;3.50;;
34278;SDS011;20538;51.528;9.942;2023-01-31T02:16:33;16.75;;;3.25;;
34278;SDS011;20538;51.528;9.942;2023-01-31T02:18:59;27.95;;;3.28;;
34278;SDS011;20538;51.528;9.942;2023-01-31T02:27:54;27.60;;;3.53;;
34278;SDS011;20538;51.528;9.942;2023-01-31T02:30:04;18.13;;;2.95;;
34278;SDS011;20538;51.528;9.942;2023-01-31T02:46:49;18.35;;;3.25;;
34278;SDS011;20538;51.528;9.942;2023-01-31T02:52:39;22.75;;;3.45;;
34278;SDS011;20538;51.528;9.942;2023-01-31T02:55:23;21.05;;;3.42;;
34278;SDS011;20538;51.528;9.942;2023-01-31T02:58:21;20.48;;;2.78;;
34278;SDS011;20538;51.528;9.942;2023-01-31T03:00:54;15.20;;;2.70;;
34278;SDS011;20538;51.528;9.942;2023-01-31T03:03:28;31.95;;;4.43;;
34278;SDS011;20538;51.528;9.942;2023-01-31T03:08:49;15.73;;;2.88;;
34278;SDS011;20538;51.528;9.942;2023-01-31T03:19:50;12.98;;;2.97;;
34278;SDS011;20538;51.528;9.942;2023-01-31T03:22:29;24.95;;;4.00;;
34278;SDS011;20538;51.528;9.942;2023-01-31T03:24:58;19.83;;;3.13;;
34278;SDS011;20538;51.528;9.942;2023-01-31T03:27:25;21.65;;;4.32;;
34278;SDS011;20538;51.528;9.942;2023-01-31T03:29:52;24.30;;;3.47;;
34278;SDS011;20538;51.528;9.942;2023-01-31T03:32:25;20.65;;;2.90;;
34278;SDS011;20538;51.528;9.942;2023-01-31T03:34:54;25.83;;;3.40;;
34278;SDS011;20538;51.528;9.942;2023-01-31T03:37:25;18.73;;;3.15;;
34278;SDS011;20538;51.528;9.942;2023-01-31T03:45:44;31.17;;;3.85;;
34278;SDS011;20538;51.528;9.942;2023-01-31T03:48:27;15.50;;;3.60;;
34278;SDS011;20538;51.528;9.942;2023-01-31T03:51:01;17.38;;;2.75;;
34278;SDS011;20538;51.528;9.942;2023-01-31T03:53:32;20.83;;;3.10;;
34278;SDS011;20538;51.528;9.942;2023-01-31T03:56:10;21.20;;;4.00;;
34278;SDS011;20538;51.528;9.942;2023-01-31T03:58:57;18.35;;;2.95;;
34278;SDS011;20538;51.528;9.942;2023-01-31T04:01:45;21.40;;;3.30;;
34278;SDS011;20538;51.528;9.942;2023-01-31T04:04:15;14.63;;;2.80;;
34278;SDS011;20538;51.528;9.942;2023-01-31T04:06:49;20.73;;;3.92;;
34278;SDS011;20538;51.528;9.942;2023-01-31T04:09:17;16.90;;;3.50;;
34278;SDS011;20538;51.528;9.942;2023-01-31T04:11:45;18.65;;;3.05;;
34278;SDS011;20538;51.528;9.942;2023-01-31T04:14:13;24.00;;;4.50;;
34278;SDS011;20538;51.528;9.942;2023-01-31T04:16:39;17.58;;;4.13;;
34278;SDS011;20538;51.528;9.942;2023-01-31T04:19:04;13.75;;;3.33;;
34278;SDS011;20538;51.528;9.942;2023-01-31T04:21:30;16.27;;;2.70;;
34278;SDS011;20538;51.528;9.942;2023-01-31T04:23:56;16.73;;;3.22;;
34278;SDS011;20538;51.528;9.942;2023-01-31T04:26:22;22.00;;;3.65;;
34278;SDS011;20538;51.528;9.942;2023-01-31T04:28:47;17.92;;;2.97;;
34278;SDS011;20538;51.528;9.942;2023-01-31T04:31:14;17.52;;;3.20;;
34278;SDS011;20538;51.528;9.942;2023-01-31T04:33:40;21.08;;;3.60;;
34278;SDS011;20538;51.528;9.942;2023-01-31T04:36:05;16.58;;;3.30;;
34278;SDS011;20538;51.528;9.942;2023-01-31T04:38:32;21.60;;;3.15;;
34278;SDS011;20538;51.528;9.942;2023-01-31T04:40:58;21.17;;;3.55;;
34278;SDS011;20538;51.528;9.942;2023-01-31T04:43:23;16.20;;;5.03;;
34278;SDS011;20538;51.528;9.942;2023-01-31T04:45:49;28.23;;;3.70;;
34278;SDS011;20538;51.528;9.942;2023-01-31T04:48:15;14.65;;;3.03;;
34278;SDS011;20538;51.528;9.942;2023-01-31T04:50:41;26.85;;;3.92;;
34278;SDS011;20538;51.528;9.942;2023-01-31T04:53:06;20.58;;;4.75;;
34278;SDS011;20538;51.528;9.942;2023-01-31T04:55:33;15.13;;;3.40;;
34278;SDS011;20538;51.528;9.942;2023-01-31T04:57:59;25.83;;;3.60;;
34278;SDS011;20538;51.528;9.942;2023-01-31T05:00:25;20.88;;;3.25;;
34278;SDS011;20538;51.528;9.942;2023-01-31T05:02:51;26.63;;;3.65;;
34278;SDS011;20538;51.528;9.942;2023-01-31T05:05:17;13.30;;;3.05;;
34278;SDS011;20538;51.528;9.942;2023-01-31T05:07:44;21.42;;;3.92;;
34278;SDS011;20538;51.528;9.942;2023-01-31T05:10:10;20.77;;;3.88;;
34278;SDS011;20538;51.528;9.942;2023-01-31T05:12:36;23.50;;;3.70;;
34278;SDS011;20538;51.528;9.942;2023-01-31T05:15:02;15.73;;;3.42;;
34278;SDS011;20538;51.528;9.942;2023-01-31T05:17:28;13.27;;;3.40;;
34278;SDS011;20538;51.528;9.942;2023-01-31T05:19:57;18.95;;;3.65;;
34278;SDS011;20538;51.528;9.942;2023-01-31T05:22:24;15.00;;;3.22;;
34278;SDS011;20538;51.528;9.942;2023-01-31T05:24:50;16.00;;;3.05;;
34278;SDS011;20538;51.528;9.942;2023-01-31T05:27:16;18.75;;;3.30;;
34278;SDS011;20538;51.528;9.942;2023-01-31T05:29:42;18.55;;;2.88;;
34278;SDS011;20538;51.528;9.942;2023-01-31T05:32:08;20.55;;;3.78;;
34278;SDS011;20538;51.528;9.942;2023-01-31T05:34:33;25.02;;;3.58;;
34278;SDS011;20538;51.528;9.942;2023-01-31T05:37:00;21.83;;;3.80;;
34278;SDS011;20538;51.528;9.942;2023-01-31T05:39:26;13.50;;;2.63;;
34278;SDS011;20538;51.528;9.942;2023-01-31T05:41:52;17.73;;;2.88;;
34278;SDS011;20538;51.528;9.942;2023-01-31T05:44:18;23.85;;;3.60;;
34278;SDS011;20538;51.528;9.942;2023-01-31T05:46:44;13.60;;;2.97;;
34278;SDS011;20538;51.528;9.942;2023-01-31T05:49:10;13.60;;;3.17;;
34278;SDS011;20538;51.528;9.942;2023-01-31T05:51:36;20.85;;;3.72;;
34278;SDS011;20538;51.528;9.942;2023-01-31T05:54:05;21.58;;;3.28;;
34278;SDS011;20538;51.528;9.942;2023-01-31T05:56:31;19.20;;;2.85;;
34278;SDS011;20538;51.528;9.942;2023-01-31T05:58:57;20.08;;;3.08;;
34278;SDS011;20538;51.528;9.942;2023-01-31T06:01:23;18.63;;;3.42;;
34278;SDS011;20538;51.528;9.942;2023-01-31T06:03:50;17.45;;;3.55;;
34278;SDS011;20538;51.528;9.942;2023-01-31T06:06:17;21.60;;;3.13;;
34278;SDS011;20538;51.528;9.942;2023-01-31T06:08:43;22.35;;;3.65;;
34278;SDS011;20538;51.528;9.942;2023-01-31T06:11:10;19.23;;;3.05;;
34278;SDS011;20538;51.528;9.942;2023-01-31T06:13:36;27.13;;;2.88;;
34278;SDS011;20538;51.528;9.942;2023-01-31T06:16:03;20.70;;;3.03;;
34278;SDS011;20538;51.528;9.942;2023-01-31T06:18:29;30.70;;;3.42;;
34278;SDS011;20538;51.528;9.942;2023-01-31T06:20:55;15.45;;;2.83;;
34278;SDS011;20538;51.528;9.942;2023-01-31T06:23:21;19.77;;;2.92;;
34278;SDS011;20538;51.528;9.942;2023-01-31T06:25:50;21.77;;;3.78;;
34278;SDS011;20538;51.528;9.942;2023-01-31T06:28:17;22.75;;;4.43;;
34278;SDS011;20538;51.528;9.942;2023-01-31T06:30:43;16.20;;;3.25;;
34278;SDS011;20538;51.528;9.942;2023-01-31T06:33:09;23.63;;;4.32;;
34278;SDS011;20538;51.528;9.942;2023-01-31T06:35:35;16.10;;;2.75;;
34278;SDS011;20538;51.528;9.942;2023-01-31T06:38:01;15.25;;;2.80;;
34278;SDS011;20538;51.528;9.942;2023-01-31T06:40:27;21.25;;;3.85;;
34278;SDS011;20538;51.528;9.942;2023-01-31T06:42:53;19.20;;;2.60;;
34278;SDS011;20538;51.528;9.942;2023-01-31T06:45:21;18.15;;;2.90;;
34278;SDS011;20538;51.528;9.942;2023-01-31T06:47:50;23.25;;;2.75;;
34278;SDS011;20538;51.528;9.942;2023-01-31T06:50:16;21.40;;;3.10;;
34278;SDS011;20538;51.528;9.942;2023-01-31T06:52:42;22.08;;;2.92;;
34278;SDS011;20538;51.528;9.942;2023-01-31T06:55:08;29.33;;;3.92;;
34278;SDS011;20538;51.528;9.942;2023-01-31T06:57:34;20.67;;;3.35;;
34278;SDS011;20538;51.528;9.942;2023-01-31T06:59:59;22.27;;;2.55;;
34278;SDS011;20538;51.528;9.942;2023-01-31T07:02:25;26.20;;;2.70;;
34278;SDS011;20538;51.528;9.942;2023-01-31T07:04:51;15.40;;;2.92;;
34278;SDS011;20538;51.528;9.942;2023-01-31T07:07:17;14.07;;;2.70;;
34278;SDS011;20538;51.528;9.942;2023-01-31T07:09:43;19.08;;;2.85;;
34278;SDS011;20538;51.528;9.942;2023-01-31T07:12:08;24.40;;;3.38;;
34278;SDS011;20538;51.528;9.942;2023-01-31T07:14:34;16.23;;;2.22;;
34278;SDS011;20538;51.528;9.942;2023-01-31T07:17:00;13.65;;;2.80;;
34278;SDS011;20538;51.528;9.942;2023-01-31T07:19:26;16.23;;;2.92;;
34278;SDS011;20538;51.528;9.942;2023-01-31T07:21:51;14.75;;;2.53;;
34278;SDS011;20538;51.528;9.942;2023-01-31T07:24:17;14.02;;;2.60;;
34278;SDS011;20538;51.528;9.942;2023-01-31T07:26:42;21.73;;;3.55;;
34278;SDS011;20538;51.528;9.942;2023-01-31T07:29:08;14.70;;;2.67;;
34278;SDS011;20538;51.528;9.942;2023-01-31T07:31:36;14.43;;;2.78;;
34278;SDS011;20538;51.528;9.942;2023-01-31T07:34:02;27.25;;;4.60;;
34278;SDS011;20538;51.528;9.942;2023-01-31T07:36:27;18.40;;;3.00;;
34278;SDS011;20538;51.528;9.942;2023-01-31T07:39:14;14.48;;;2.72;;
34278;SDS011;20538;51.528;9.942;2023-01-31T07:41:40;21.80;;;3.22;;
34278;SDS011;20538;51.528;9.942;2023-01-31T07:44:05;16.42;;;2.80;;
34278;SDS011;20538;51.528;9.942;2023-01-31T07:46:33;20.23;;;2.50;;
34278;SDS011;20538;51.528;9.942;2023-01-31T07:48:59;29.80;;;4.13;;
34278;SDS011;20538;51.528;9.942;2023-01-31T07:51:25;18.02;;;2.53;;
34278;SDS011;20538;51.528;9.942;2023-01-31T07:53:50;13.32;;;3.33;;
34278;SDS011;20538;51.528;9.942;2023-01-31T07:56:17;10.68;;;3.20;;
34278;SDS011;20538;51.528;9.942;2023-01-31T07:58:44;9.57;;;2.20;;
34278;SDS011;20538;51.528;9.942;2023-01-31T08:01:21;16.42;;;2.70;;
34278;SDS011;20538;51.528;9.942;2023-01-31T08:04:07;11.07;;;2.50;;
34278;SDS011;20538;51.528;9.942;2023-01-31T08:06:34;15.57;;;3.08;;
34278;SDS011;20538;51.528;9.942;2023-01-31T08:09:01;8.32;;;2.83;;
34278;SDS011;20538;51.528;9.942;2023-01-31T08:11:27;7.93;;;2.45;;
34278;SDS011;20538;51.528;9.942;2023-01-31T08:13:52;13.73;;;2.95;;
34278;SDS011;20538;51.528;9.942;2023-01-31T08:16:18;16.05;;;3.17;;
34278;SDS011;20538;51.528;9.942;2023-01-31T08:18:45;13.52;;;3.20;;
34278;SDS011;20538;51.528;9.942;2023-01-31T08:21:11;15.27;;;3.05;;
34278;SDS011;20538;51.528;9.942;2023-01-31T08:23:37;19.90;;;3.78;;
34278;SDS011;20538;51.528;9.942;2023-01-31T08:26:10;11.93;;;3.15;;
34278;SDS011;20538;51.528;9.942;2023-01-31T08:28:38;12.48;;;3.38;;
34278;SDS011;20538;51.528;9.942;2023-01-31T08:31:04;22.05;;;3.30;;
34278;SDS011;20538;51.528;9.942;2023-01-31T08:33:30;14.82;;;3.85;;
34278;SDS011;20538;51.528;9.942;2023-01-31T08:35:56;13.48;;;3.10;;
34278;SDS011;20538;51.528;9.942;2023-01-31T08:38:21;20.63;;;3.30;;
34278;SDS011;20538;51.528;9.942;2023-01-31T08:40:47;13.63;;;2.85;;
34278;SDS011;20538;51.528;9.942;2023-01-31T08:43:14;21.95;;;3.33;;
34278;SDS011;20538;51.528;9.942;2023-01-31T08:45:40;11.27;;;3.40;;
34278;SDS011;20538;51.528;9.942;2023-01-31T08:48:08;40.70;;;13.90;;
34278;SDS011;20538;51.528;9.942;2023-01-31T08:50:34;15.52;;;3.75;;
34278;SDS011;20538;51.528;9.942;2023-01-31T08:53:01;16.17;;;3.22;;
34278;SDS011;20538;51.528;9.942;2023-01-31T08:55:29;13.38;;;3.78;;
34278;SDS011;20538;51.528;9.942;2023-01-31T08:57:56;17.20;;;3.70;;
34278;SDS011;20538;51.528;9.942;2023-01-31T09:00:22;16.52;;;4.28;;
34278;SDS011;20538;51.528;9.942;2023-01-31T09:02:51;16.58;;;3.70;;
34278;SDS011;20538;51.528;9.942;2023-01-31T09:05:17;14.00;;;3.15;;
34278;SDS011;20538;51.528;9.942;2023-01-31T09:07:43;26.50;;;4.30;;
34278;SDS011;20538;51.528;9.942;2023-01-31T09:10:09;19.85;;;3.72;;
34278;SDS011;20538;51.528;9.942;2023-01-31T09:12:35;15.65;;;3.92;;
34278;SDS011;20538;51.528;9.942;2023-01-31T09:15:01;22.65;;;3.97;;
34278;SDS011;20538;51.528;9.942;2023-01-31T09:17:27;16.95;;;4.28;;
34278;SDS011;20538;51.528;9.942;2023-01-31T09:19:53;15.68;;;3.78;;
34278;SDS011;20538;51.528;9.942;2023-01-31T09:22:19;18.50;;;4.47;;
34278;SDS011;20538;51.528;9.942;2023-01-31T09:24:45;20.33;;;4.53;;
34278;SDS011;20538;51.528;9.942;2023-01-31T09:27:11;18.73;;;4.22;;
34278;SDS011;20538;51.528;9.942;2023-01-31T09:29:36;16.50;;;4.50;;
34278;SDS011;20538;51.528;9.942;2023-01-31T09:32:02;13.88;;;4.70;;
34278;SDS011;20538;51.528;9.942;2023-01-31T09:34:28;25.55;;;4.50;;
34278;SDS011;20538;51.528;9.942;2023-01-31T09:36:54;23.98;;;4.82;;
34278;SDS011;20538;51.528;9.942;2023-01-31T09:39:21;22.95;;;4.82;;
34278;SDS011;20538;51.528;9.942;2023-01-31T09:42:01;20.92;;;4.88;;
34278;SDS011;20538;51.528;9.942;2023-01-31T09:44:43;21.08;;;4.47;;
34278;SDS011;20538;51.528;9.942;2023-01-31T09:47:21;26.95;;;5.35;;
34278;SDS011;20538;51.528;9.942;2023-01-31T09:50:17;18.90;;;4.15;;
34278;SDS011;20538;51.528;9.942;2023-01-31T09:52:46;23.98;;;5.38;;
34278;SDS011;20538;51.528;9.942;2023-01-31T09:55:14;14.40;;;4.18;;
34278;SDS011;20538;51.528;9.942;2023-01-31T09:58:28;23.67;;;4.88;;
34278;SDS011;20538;51.528;9.942;2023-01-31T10:01:02;18.87;;;5.03;;
34278;SDS011;20538;51.528;9.942;2023-01-31T10:06:22;17.38;;;4.65;;
34278;SDS011;20538;51.528;9.942;2023-01-31T10:17:04;25.23;;;5.18;;
34278;SDS011;20538;51.528;9.942;2023-01-31T10:23:02;28.48;;;5.55;;
34278;SDS011;20538;51.528;9.942;2023-01-31T10:25:27;22.25;;;5.13;;
34278;SDS011;20538;51.528;9.942;2023-01-31T10:28:02;18.23;;;4.90;;
34278;SDS011;20538;51.528;9.942;2023-01-31T10:30:32;24.05;;;4.85;;
34278;SDS011;20538;51.528;9.942;2023-01-31T10:33:16;21.88;;;5.18;;
34278;SDS011;20538;51.528;9.942;2023-01-31T10:35:53;13.38;;;5.03;;
34278;SDS011;20538;51.528;9.942;2023-01-31T10:38:36;24.17;;;5.95;;
34278;SDS011;20538;51.528;9.942;2023-01-31T10:41:13;27.17;;;6.05;;
34278;SDS011;20538;51.528;9.942;2023-01-31T10:43:48;18.83;;;5.85;;
34278;SDS011;20538;51.528;9.942;2023-01-31T10:46:27;25.27;;;6.20;;
34278;SDS011;20538;51.528;9.942;2023-01-31T10:48:55;27.08;;;5.82;;
34278;SDS011;20538;51.528;9.942;2023-01-31T10:51:28;23.92;;;6.15;;
34278;SDS011;20538;51.528;9.942;2023-01-31T10:54:40;29.70;;;7.30;;
34278;SDS011;20538;51.528;9.942;2023-01-31T10:57:14;21.75;;;5.85;;
34278;SDS011;20538;51.528;9.942;2023-01-31T10:59:42;31.23;;;6.30;;
34278;SDS011;20538;51.528;9.942;2023-01-31T11:02:19;28.48;;;6.53;;
34278;SDS011;20538;51.528;9.942;2023-01-31T11:04:50;18.85;;;5.93;;
34278;SDS011;20538;51.528;9.942;2023-01-31T11:07:19;26.52;;;6.40;;
34278;SDS011;20538;51.528;9.942;2023-01-31T11:09:50;34.38;;;7.85;;
34278;SDS011;20538;51.528;9.942;2023-01-31T11:12:18;24.13;;;6.85;;
34278;SDS011;20538;51.528;9.942;2023-01-31T11:14:47;21.83;;;7.07;;
34278;SDS011;20538;51.528;9.942;2023-01-31T11:17:28;18.75;;;7.97;;
34278;SDS011;20538;51.528;9.942;2023-01-31T11:19:57;23.80;;;6.85;;
34278;SDS011;20538;51.528;9.942;2023-01-31T11:24:51;29.85;;;6.88;;
34278;SDS011;20538;51.528;9.942;2023-01-31T11:32:31;21.85;;;7.28;;
34278;SDS011;20538;51.528;9.942;2023-01-31T11:35:02;22.13;;;6.63;;
34278;SDS011;20538;51.528;9.942;2023-01-31T11:37:52;23.20;;;7.38;;
34278;SDS011;20538;51.528;9.942;2023-01-31T11:40:33;14.48;;;6.10;;
34278;SDS011;20538;51.528;9.942;2023-01-31T11:43:01;16.50;;;6.68;;
34278;SDS011;20538;51.528;9.942;2023-01-31T11:46:07;25.42;;;7.40;;
34278;SDS011;20538;51.528;9.942;2023-01-31T11:48:42;21.17;;;7.25;;
34278;SDS011;20538;51.528;9.942;2023-01-31T11:53:42;27.80;;;7.90;;
34278;SDS011;20538;51.528;9.942;2023-01-31T11:56:16;24.27;;;8.02;;
34278;SDS011;20538;51.528;9.942;2023-01-31T11:58:47;20.45;;;7.07;;
34278;SDS011;20538;51.528;9.942;2023-01-31T12:01:17;22.38;;;7.78;;
34278;SDS011;20538;51.528;9.942;2023-01-31T12:03:47;25.20;;;8.00;;
34278;SDS011;20538;51.528;9.942;2023-01-31T12:06:26;25.48;;;7.55;;
34278;SDS011;20538;51.528;9.942;2023-01-31T12:08:56;20.73;;;6.70;;
34278;SDS011;20538;51.528;9.942;2023-01-31T12:16:30;15.73;;;6.63;;
34278;SDS011;20538;51.528;9.942;2023-01-31T12:21:53;17.52;;;6.10;;
34278;SDS011;20538;51.528;9.942;2023-01-31T12:24:43;16.38;;;5.85;;
34278;SDS011;20538;51.528;9.942;2023-01-31T12:27:21;13.95;;;6.35;;
34278;SDS011;20538;51.528;9.942;2023-01-31T12:30:32;20.88;;;7.53;;
34278;SDS011;20538;51.528;9.942;2023-01-31T12:33:22;22.30;;;6.55;;
34278;SDS011;20538;51.528;9.942;2023-01-31T12:55:57;22.73;;;7.60;;
34278;SDS011;20538;51.528;9.942;2023-01-31T13:06:44;19.83;;;6.50;;
34278;SDS011;20538;51.528;9.942;2023-01-31T13:09:20;16.10;;;5.90;;
34278;SDS011;20538;51.528;9.942;2023-01-31T13:11:56;20.13;;;6.40;;
34278;SDS011;20538;51.528;9.942;2023-01-31T13:14:39;21.85;;;7.20;;
34278;SDS011;20538;51.528;9.942;2023-01-31T13:17:09;14.68;;;5.22;;
34278;SDS011;20538;51.528;9.942;2023-01-31T13:19:49;14.20;;;5.13;;
34278;SDS011;20538;51.528;9.942;2023-01-31T13:22:25;11.70;;;5.07;;
34278;SDS011;20538;51.528;9.942;2023-01-31T13:27:58;13.13;;;4.97;;
34278;SDS011;20538;51.528;9.942;2023-01-31T13:30:34;12.18;;;5.38;;
34278;SDS011;20538;51.528;9.942;2023-01-31T13:33:29;17.00;;;5.93;;
34278;SDS011;20538;51.528;9.942;2023-01-31T13:39:12;12.65;;;5.25;;
34278;SDS011;20538;51.528;9.942;2023-01-31T13:41:43;14.48;;;5.18;;
34278;SDS011;20538;51.528;9.942;2023-01-31T13:44:11;20.48;;;5.50;;
34278;SDS011;20538;51.528;9.942;2023-01-31T13:49:26;15.07;;;5.03;;
34278;SDS011;20538;51.528;9.942;2023-01-31T13:52:04;15.57;;;4.97;;
34278;SDS011;20538;51.528;9.942;2023-01-31T13:54:43;13.75;;;5.60;;
34278;SDS011;20538;51.528;9.942;2023-01-31T13:57:19;14.90;;;4.95;;
34278;SDS011;20538;51.528;9.942;2023-01-31T14:00:08;16.58;;;4.60;;
34278;SDS011;20538;51.528;9.942;2023-01-31T14:02:38;22.05;;;6.70;;
34278;SDS011;20538;51.528;9.942;2023-01-31T14:05:49;15.70;;;5.15;;
34278;SDS011;20538;51.528;9.942;2023-01-31T14:13:39;17.75;;;5.35;;
34278;SDS011;20538;51.528;9.942;2023-01-31T14:18:56;14.65;;;5.63;;
34278;SDS011;20538;51.528;9.942;2023-01-31T14:23:58;13.23;;;5.13;;
34278;SDS011;20538;51.528;9.942;2023-01-31T14:29:09;13.93;;;5.00;;
34278;SDS011;20538;51.528;9.942;2023-01-31T14:31:46;17.55;;;5.57;;
34278;SDS011;20538;51.528;9.942;2023-01-31T14:34:16;20.23;;;5.20;;
34278;SDS011;20538;51.528;9.942;2023-01-31T14:42:21;13.32;;;4.28;;
34278;SDS011;20538;51.528;9.942;2023-01-31T14:44:56;7.93;;;3.78;;
34278;SDS011;20538;51.528;9.942;2023-01-31T14:51:08;8.25;;;3.83;;
34278;SDS011;20538;51.528;9.942;2023-01-31T14:53:59;5.90;;;3.25;;
34278;SDS011;20538;51.528;9.942;2023-01-31T14:59:44;14.07;;;4.25;;
34278;SDS011;20538;51.528;9.942;2023-01-31T15:04:58;8.38;;;3.72;;
34278;SDS011;20538;51.528;9.942;2023-01-31T15:07:27;6.35;;;3.80;;
34278;SDS011;20538;51.528;9.942;2023-01-31T15:09:53;8.57;;;3.63;;
34278;SDS011;20538;51.528;9.942;2023-01-31T15:15:21;7.68;;;3.60;;
34278;SDS011;20538;51.528;9.942;2023-01-31T15:18:01;10.30;;;3.55;;
34278;SDS011;20538;51.528;9.942;2023-01-31T15:20:36;11.60;;;3.80;;
34278;SDS011;20538;51.528;9.942;2023-01-31T15:23:10;11.70;;;3.33;;
34278;SDS011;20538;51.528;9.942;2023-01-31T15:25:48;8.10;;;3.08;;
34278;SDS011;20538;51.528;9.942;2023-01-31T15:28:23;6.68;;;3.78;;
34278;SDS011;20538;51.528;9.942;2023-01-31T15:30:52;5.47;;;3.30;;
34278;SDS011;20538;51.528;9.942;2023-01-31T15:33:26;9.98;;;4.32;;
34278;SDS011;20538;51.528;9.942;2023-01-31T15:36:06;8.45;;;3.55;;
34278;SDS011;20538;51.528;9.942;2023-01-31T15:41:23;9.65;;;3.60;;
34278;SDS011;20538;51.528;9.942;2023-01-31T15:44:16;10.20;;;3.88;;
34278;SDS011;20538;51.528;9.942;2023-01-31T15:46:43;14.32;;;4.03;;
34278;SDS011;20538;51.528;9.942;2023-01-31T15:51:44;10.05;;;4.80;;
34278;SDS011;20538;51.528;9.942;2023-01-31T15:54:12;9.20;;;4.28;;
34278;SDS011;20538;51.528;9.942;2023-01-31T15:56:39;14.25;;;5.78;;
34278;SDS011;20538;51.528;9.942;2023-01-31T15:59:09;11.50;;;4.75;;
34278;SDS011;20538;51.528;9.942;2023-01-31T16:01:37;10.63;;;4.35;;
34278;SDS011;20538;51.528;9.942;2023-01-31T16:04:03;13.00;;;5.07;;
34278;SDS011;20538;51.528;9.942;2023-01-31T16:06:33;10.57;;;4.63;;
34278;SDS011;20538;51.528;9.942;2023-01-31T16:09:03;9.95;;;4.65;;
34278;SDS011;20538;51.528;9.942;2023-01-31T16:11:30;11.32;;;5.43;;
34278;SDS011;20538;51.528;9.942;2023-01-31T16:13:58;8.60;;;5.85;;
34278;SDS011;20538;51.528;9.942;2023-01-31T16:16:27;13.27;;;6.25;;
34278;SDS011;20538;51.528;9.942;2023-01-31T16:18:54;9.38;;;5.45;;
34278;SDS011;20538;51.528;9.942;2023-01-31T16:24:07;9.70;;;5.47;;
34278;SDS011;20538;51.528;9.942;2023-01-31T16:27:25;10.77;;;5.45;;
34278;SDS011;20538;51.528;9.942;2023-01-31T16:29:37;8.35;;;4.82;;
34278;SDS011;20538;51.528;9.942;2023-01-31T16:32:43;8.20;;;4.88;;
34278;SDS011;20538;51.528;9.942;2023-01-31T16:35:05;8.30;;;4.30;;
34278;SDS011;20538;51.528;9.942;2023-01-31T16:37:42;7.82;;;4.82;;
34278;SDS011;20538;51.528;9.942;2023-01-31T16:40:22;7.68;;;4.20;;
34278;SDS011;20538;51.528;9.942;2023-01-31T16:48:28;9.52;;;5.13;;
34278;SDS011;20538;51.528;9.942;2023-01-31T16:57:04;10.32;;;6.22;;
34278;SDS011;20538;51.528;9.942;2023-01-31T17:02:13;11.98;;;6.63;;
34278;SDS011;20538;51.528;9.942;2023-01-31T17:04:42;9.38;;;6.25;;
34278;SDS011;20538;51.528;9.942;2023-01-31T17:07:29;14.77;;;7.05;;
34278;SDS011;20538;51.528;9.942;2023-01-31T17:10:03;12.13;;;7.18;;
34278;SDS011;20538;51.528;9.942;2023-01-31T17:12:35;12.38;;;7.70;;
34278;SDS011;20538;51.528;9.942;2023-01-31T17:15:16;15.82;;;8.32;;
34278;SDS011;20538;51.528;9.942;2023-01-31T17:17:43;13.75;;;7.80;;
34278;SDS011;20538;51.528;9.942;2023-01-31T17:20:12;14.45;;;7.63;;
34278;SDS011;20538;51.528;9.942;2023-01-31T17:22:39;13.65;;;7.85;;
34278;SDS011;20538;51.528;9.942;2023-01-31T17:25:15;15.50;;;8.60;;
34278;SDS011;20538;51.528;9.942;2023-01-31T17:27:43;14.15;;;8.30;;
34278;SDS011;20538;51.528;9.942;2023-01-31T17:30:09;15.32;;;9.07;;
34278;SDS011;20538;51.528;9.942;2023-01-31T17:32:37;14.02;;;8.27;;
34278;SDS011;20538;51.528;9.942;2023-01-31T17:37:56;17.63;;;8.45;;
34278;SDS011;20538;51.528;9.942;2023-01-31T17:40:22;15.80;;;8.45;;
34278;SDS011;20538;51.528;9.942;2023-01-31T17:42:49;16.05;;;8.48;;
34278;SDS011;20538;51.528;9.942;2023-01-31T17:45:16;16.30;;;8.07;;
34278;SDS011;20538;51.528;9.942;2023-01-31T17:47:43;13.73;;;8.07;;
34278;SDS011;20538;51.528;9.942;2023-01-31T17:50:20;12.00;;;7.20;;
34278;SDS011;20538;51.528;9.942;2023-01-31T17:52:48;11.02;;;7.65;;